Domov               UVHVVR             MKGP            O straneh              
ZDRAVSTVENO VARSTVO RASTLIN
  MREŽA AGROMET. POSTAJ
 ► PROGNOSTIČNA OBVESTILA
AGROMETEOROLOŠKI PODATKI -
ARSO
OBVLADOVANJE TVEGANJ ZARADI
NEUGODNIH VREMENSKIH RAZMER
  ► NARAVNE NESREČE
  ► SUŠA/MOČA
  ► NAMAKANJE
  ► ŽLED (gozdarstvo)
KARTOGRAFSKI PRIKAZI
SPLETNE POVEZAVE
PROJEKTI IN PUBLIKACIJE

AGROMETEOROLOŠKA MREŽA: VREMENSKE POSTAJE IN FENOLOŠKA OPAZOVANJA

Pregled podatkov za lokacijo Artiče, meteorološka postaja 42800

Pregled senzorjev na lokaciji

ID Ime Zadnja
vrednost
Datum
zadnje
spremembe
Tip
senzorja
4298 Omočenost lista (U) 0 U 21.2.2019 21:30 A730WET
3778 Padavine (mm) 0 mm 21.2.2019 21:30 Rain-O-Matic
2447 Relativna vlaga 2 m (% RH) 64,61 % RH 21.2.2019 21:30 50YA
2446 Temperatura 2 m (°C) 7,76 °C 21.2.2019 21:30 50YA

Pregled podatkov zadnjih 24 ur

Zap.
št.
Datum in čas Artiče
Omočenost
lista
Padavine Relativna
vlaga
2
m
Temperatura
2
m
1 21.2.2019 23:30
2 21.2.2019 23:00
3 21.2.2019 22:30
4 21.2.2019 22:00
5 21.2.2019 21:30 0 0 64,6 7,8
6 21.2.2019 21:00 0 0 62,1 8,4
7 21.2.2019 20:30 0 0 61,5 8,4
8 21.2.2019 20:00 0 0 59,9 8,9
9 21.2.2019 19:30 0 0 55,3 10,2
10 21.2.2019 19:00 0 0 53,8 10,8
11 21.2.2019 18:30 0 0 53,7 11
12 21.2.2019 18:00 0 0 51,9 11,6
13 21.2.2019 17:30 0 0 50,7 12,1
14 21.2.2019 17:00 0 0 49,8 13,1
15 21.2.2019 16:30 0 0 47,6 13,9
16 21.2.2019 16:00 0 0 47,1 14
17 21.2.2019 15:30 0 0 47,9 13,9
18 21.2.2019 15:00 0 0 48,2 13,7
19 21.2.2019 14:30 0 0 50,6 13,5
20 21.2.2019 14:00 0 0 52,8 12,9
21 21.2.2019 13:30 0 0 54,8 12,4
22 21.2.2019 13:00 0 0 55,7 11,9
23 21.2.2019 12:30 0 0 56,7 11,5
24 21.2.2019 12:00 0 0 59,2 10,9
25 21.2.2019 11:30 0 0 65,2 9,2
26 21.2.2019 11:00 0 0 73,3 7,6
27 21.2.2019 10:30 0 0 78,7 6,7
28 21.2.2019 10:00 0 0 83,5 5,2
29 21.2.2019 09:30 1 0 87,6 3,9
30 21.2.2019 09:00 10 0 89,7 3,1
31 21.2.2019 08:30 10 0 91,7 2,7
32 21.2.2019 08:00 10 0 92,6 2
33 21.2.2019 07:30 10 0 93,8 1,4
34 21.2.2019 07:00 10 0 95 0,9
35 21.2.2019 06:30 10 0 95,1 1
36 21.2.2019 06:00 10 0 92,5 1,4
37 21.2.2019 05:30 10 0 90,6 1,7
38 21.2.2019 05:00 10 0 89 2,5
39 21.2.2019 04:30 10 0 91,2 2
40 21.2.2019 04:00 10 0 85,7 3
41 21.2.2019 03:30 1 0 81 4
42 21.2.2019 03:00 1 0 80,4 4,5
43 21.2.2019 02:30 1 0 81 4,4
44 21.2.2019 02:00 1 0 78,8 4,9
45 21.2.2019 01:30 0 0 80,6 4,6
46 21.2.2019 01:00 0 0 77 5,2
47 21.2.2019 00:30 0 0 66,8 7,4
48 21.2.2019 00:00 0 0 67,2 7,3
© 2011 Ministrstvo za kmetijstvo, gozdarstvo in prehrano. Vse pravice pridržane.